createdAt,value
2023-01-19T00:01:00.896Z,36.68
2023-01-19T00:04:04.414Z,36.51
2023-01-19T00:07:10.710Z,36.85
2023-01-19T00:10:17.345Z,36.84
2023-01-19T00:13:23.257Z,36.98
2023-01-19T00:16:31.355Z,36.62
2023-01-19T00:19:34.911Z,37.06
2023-01-19T00:22:54.083Z,37.13
2023-01-19T00:25:59.779Z,36.75
2023-01-19T00:29:10.528Z,36.64
2023-01-19T00:32:14.180Z,36.90
2023-01-19T00:35:20.168Z,36.72
2023-01-19T00:38:24.673Z,37.18
2023-01-19T00:41:43.174Z,37.01
2023-01-19T00:44:49.155Z,36.46
2023-01-19T00:47:59.309Z,36.55
2023-01-19T00:51:02.881Z,36.74
2023-01-19T00:54:10.371Z,36.92
2023-01-19T00:57:16.394Z,36.68
2023-01-19T01:00:22.407Z,36.67
2023-01-19T01:03:28.896Z,36.33
2023-01-19T01:06:41.165Z,36.41
2023-01-19T01:09:48.333Z,36.39
2023-01-19T01:12:57.329Z,36.59
2023-01-19T01:16:04.222Z,36.26
2023-01-19T01:19:09.980Z,36.36
2023-01-19T01:22:13.472Z,36.37
2023-01-19T01:25:17.901Z,36.51
2023-01-19T01:28:20.971Z,36.05
2023-01-19T01:31:30.829Z,36.57
2023-01-19T01:34:34.319Z,36.05
2023-01-19T01:37:37.599Z,36.46
2023-01-19T01:40:42.229Z,36.28
2023-01-19T01:43:51.084Z,36.24
2023-01-19T01:47:06.076Z,36.12
2023-01-19T01:50:19.453Z,36.41
2023-01-19T01:53:22.668Z,36.58
2023-01-19T01:56:32.202Z,36.30
2023-01-19T01:59:41.365Z,36.50
2023-01-19T02:02:52.556Z,36.12
2023-01-19T02:06:01.577Z,35.98
2023-01-19T02:09:25.891Z,35.99
2023-01-19T02:12:47.800Z,36.12
2023-01-19T02:15:54.795Z,36.25
2023-01-19T02:19:01.341Z,35.99
2023-01-19T02:22:12.609Z,35.83
2023-01-19T02:25:19.392Z,36.08
2023-01-19T02:28:23.002Z,35.73
2023-01-19T02:31:30.024Z,36.05
2023-01-19T02:34:35.301Z,36.13
2023-01-19T02:37:44.874Z,35.77
2023-01-19T02:40:50.715Z,35.44
2023-01-19T02:43:55.314Z,36.14
2023-01-19T02:46:58.863Z,35.43
2023-01-19T02:50:02.693Z,35.80
2023-01-19T02:53:21.112Z,35.72
2023-01-19T02:56:54.900Z,35.92
2023-01-19T03:00:22.562Z,35.87
2023-01-19T03:03:32.573Z,35.68
2023-01-19T03:06:48.146Z,36.04
2023-01-19T03:10:00.652Z,35.79
2023-01-19T03:13:12.695Z,35.96
2023-01-19T03:16:23.179Z,35.53
2023-01-19T03:19:30.102Z,35.55
2023-01-19T03:22:34.222Z,35.81
2023-01-19T03:25:42.310Z,35.92
2023-01-19T03:28:49.632Z,35.66
2023-01-19T03:31:58.119Z,35.47
2023-01-19T03:35:03.958Z,35.59
2023-01-19T03:38:15.572Z,35.63
2023-01-19T03:41:22.695Z,35.71
2023-01-19T03:44:30.753Z,35.30
2023-01-19T03:47:35.638Z,35.42
2023-01-19T03:50:39.386Z,35.57
2023-01-19T03:53:43.205Z,35.19
2023-01-19T03:56:47.641Z,35.48
2023-01-19T03:59:53.466Z,34.89
2023-01-19T04:02:57.302Z,35.07
2023-01-19T04:06:00.384Z,35.04
2023-01-19T04:09:03.470Z,35.26
2023-01-19T04:12:09.239Z,35.30
2023-01-19T04:15:14.391Z,35.12
2023-01-19T04:18:18.127Z,35.00
2023-01-19T04:21:21.623Z,34.90
2023-01-19T04:24:27.217Z,35.02
2023-01-19T04:27:37.291Z,35.17
2023-01-19T04:30:44.750Z,34.63
2023-01-19T04:33:51.227Z,34.71
2023-01-19T04:36:56.069Z,35.17
2023-01-19T04:39:59.276Z,34.92
2023-01-19T04:43:02.999Z,34.78
2023-01-19T04:46:08.931Z,34.12
2023-01-19T04:49:12.527Z,34.23
2023-01-19T04:52:15.934Z,34.45
2023-01-19T04:55:21.802Z,34.56
2023-01-19T04:58:25.190Z,34.66
2023-01-19T05:01:33.772Z,34.16
2023-01-19T05:04:37.166Z,34.22
2023-01-19T05:07:41.638Z,34.31
2023-01-19T05:10:44.711Z,34.37
2023-01-19T05:13:50.994Z,34.46
2023-01-19T05:17:03.624Z,34.53
2023-01-19T05:20:15.006Z,34.32
2023-01-19T05:23:22.216Z,34.79
2023-01-19T05:26:25.449Z,34.66
2023-01-19T05:29:35.930Z,34.26
2023-01-19T05:32:40.958Z,34.73
2023-01-19T05:35:44.659Z,34.94
2023-01-19T05:38:50.092Z,34.90
2023-01-19T05:41:53.180Z,34.66
2023-01-19T05:44:59.143Z,34.60
2023-01-19T05:48:08.197Z,34.93
2023-01-19T05:51:15.607Z,34.78
2023-01-19T05:54:18.848Z,35.14
2023-01-19T05:57:22.550Z,34.98
2023-01-19T06:00:27.681Z,34.65
2023-01-19T06:03:32.421Z,34.70
2023-01-19T06:06:35.694Z,35.03
2023-01-19T06:09:40.272Z,35.15
2023-01-19T06:12:45.762Z,34.97
2023-01-19T06:15:48.821Z,34.63
2023-01-19T06:18:54.302Z,34.76
2023-01-19T06:21:59.780Z,35.13
2023-01-19T06:25:04.481Z,35.13
2023-01-19T06:28:15.215Z,34.95
2023-01-19T06:31:18.346Z,34.93
2023-01-19T06:34:27.163Z,35.21
2023-01-19T06:37:31.491Z,35.07
2023-01-19T06:40:34.733Z,35.21
2023-01-19T06:43:38.082Z,35.25
2023-01-19T06:46:42.306Z,35.19
2023-01-19T06:49:49.324Z,35.13
2023-01-19T06:52:52.883Z,35.29
2023-01-19T06:56:04.155Z,34.96
2023-01-19T06:59:08.643Z,35.15
2023-01-19T07:02:27.531Z,34.58
2023-01-19T07:05:32.895Z,34.32
2023-01-19T07:08:37.029Z,34.34
2023-01-19T07:11:42.459Z,34.39
2023-01-19T07:14:49.554Z,34.51
2023-01-19T07:17:58.585Z,33.94
2023-01-19T07:21:03.181Z,33.94
2023-01-19T07:24:06.887Z,34.19
2023-01-19T07:27:11.750Z,34.06
2023-01-19T07:30:16.225Z,34.20
2023-01-19T07:33:19.446Z,34.40
2023-01-19T07:36:23.990Z,34.52
2023-01-19T07:39:27.210Z,34.32
2023-01-19T07:42:30.262Z,34.60
2023-01-19T07:45:33.289Z,34.44
2023-01-19T07:48:36.907Z,34.28
2023-01-19T07:51:41.655Z,34.37
2023-01-19T07:54:44.881Z,34.95
2023-01-19T07:57:51.101Z,34.92
2023-01-19T08:00:54.387Z,34.72
2023-01-19T08:03:57.596Z,34.42
2023-01-19T08:07:04.118Z,34.75
2023-01-19T08:10:08.333Z,35.09
2023-01-19T08:13:14.645Z,35.33
2023-01-19T08:16:18.927Z,34.67
2023-01-19T08:19:22.322Z,35.28
2023-01-19T08:22:29.750Z,35.30
2023-01-19T08:25:37.240Z,35.43
2023-01-19T08:28:40.383Z,35.14
2023-01-19T08:31:43.940Z,35.43
2023-01-19T08:34:49.666Z,35.57
2023-01-19T08:37:54.217Z,35.62
2023-01-19T08:40:57.298Z,35.38
2023-01-19T08:44:01.921Z,35.26
2023-01-19T08:47:05.134Z,34.89
2023-01-19T08:50:10.547Z,34.65
2023-01-19T08:53:15.050Z,34.53
2023-01-19T08:56:20.520Z,34.10
2023-01-19T08:59:24.927Z,34.24
2023-01-19T09:02:28.130Z,34.34
2023-01-19T09:05:33.227Z,34.34
2023-01-19T09:08:38.433Z,34.53
2023-01-19T09:11:44.993Z,34.58
2023-01-19T09:14:48.280Z,33.97
2023-01-19T09:17:53.506Z,33.99
2023-01-19T09:20:58.881Z,33.92
2023-01-19T09:24:08.428Z,33.98
2023-01-19T09:27:11.638Z,33.84
2023-01-19T09:30:15.269Z,34.07
2023-01-19T09:33:24.058Z,34.21
2023-01-19T09:36:27.163Z,32.13
2023-01-19T09:39:34.404Z,29.52
2023-01-19T09:42:43.863Z,27.87
2023-01-19T09:45:55.043Z,26.90
2023-01-19T09:49:01.558Z,25.83
2023-01-19T09:52:04.980Z,25.46
2023-01-19T09:55:22.078Z,25.81
2023-01-19T09:58:25.384Z,25.80
2023-01-19T10:01:42.156Z,26.72
2023-01-19T10:04:57.968Z,25.89
2023-01-19T10:08:17.931Z,25.48
2023-01-19T10:11:42.062Z,25.24
2023-01-19T10:15:03.732Z,25.26
2023-01-19T10:18:15.967Z,24.77
2023-01-19T10:21:24.661Z,25.30
2023-01-19T10:24:34.550Z,25.40
2023-01-19T10:27:39.587Z,25.65
2023-01-19T10:30:45.417Z,25.91
2023-01-19T10:33:50.154Z,25.39
2023-01-19T10:37:02.671Z,26.32
2023-01-19T10:40:21.883Z,27.02
2023-01-19T10:43:42.802Z,27.05
2023-01-19T10:46:48.171Z,27.09
2023-01-19T10:49:52.332Z,27.64
2023-01-19T10:52:57.873Z,27.46
2023-01-19T10:56:17.685Z,28.05
2023-01-19T10:59:37.306Z,27.93
2023-01-19T11:02:51.420Z,27.44
2023-01-19T11:05:54.551Z,27.65
2023-01-19T11:09:15.763Z,27.17
2023-01-19T11:12:21.465Z,27.33
2023-01-19T11:15:32.430Z,27.98
2023-01-19T11:18:38.130Z,27.51
2023-01-19T11:21:41.285Z,27.61
2023-01-19T11:24:45.864Z,27.44
2023-01-19T11:27:52.763Z,27.47
2023-01-19T11:30:59.591Z,28.13
2023-01-19T11:34:04.953Z,28.23
2023-01-19T11:37:27.530Z,28.21
2023-01-19T11:40:30.828Z,28.25
2023-01-19T11:43:48.356Z,28.97
2023-01-19T11:46:56.941Z,27.29
2023-01-19T11:50:02.808Z,27.45
2023-01-19T11:53:08.894Z,26.16
2023-01-19T11:56:16.604Z,28.36
2023-01-19T11:59:20.749Z,26.64
2023-01-19T12:02:29.986Z,27.30
2023-01-19T12:05:36.027Z,26.77
2023-01-19T12:08:48.336Z,28.29
2023-01-19T12:11:58.751Z,28.26
2023-01-19T12:15:07.577Z,28.38
2023-01-19T12:18:20.620Z,28.30
2023-01-19T12:21:23.747Z,28.39
2023-01-19T12:24:33.432Z,26.94
2023-01-19T12:27:41.147Z,27.96
2023-01-19T12:30:55.065Z,28.34
2023-01-19T12:34:32.479Z,28.01
2023-01-19T12:37:42.412Z,27.43
2023-01-19T12:40:45.640Z,27.94
2023-01-19T12:43:49.541Z,27.95
2023-01-19T12:46:57.530Z,27.21
2023-01-19T12:50:17.115Z,28.21
2023-01-19T12:53:22.700Z,28.57
2023-01-19T12:56:36.510Z,29.51
2023-01-19T12:59:40.860Z,29.61
2023-01-19T13:02:46.558Z,29.85
2023-01-19T13:05:57.216Z,30.30
2023-01-19T13:09:03.155Z,30.90
2023-01-19T13:12:27.649Z,32.89
2023-01-19T13:15:36.601Z,34.54
2023-01-19T13:18:43.957Z,35.23
2023-01-19T13:21:50.212Z,36.35
2023-01-19T13:25:09.779Z,38.00
2023-01-19T13:28:17.311Z,38.69
2023-01-19T13:31:23.025Z,38.40
2023-01-19T13:34:28.661Z,38.27
2023-01-19T13:37:39.945Z,37.90
2023-01-19T13:40:46.071Z,37.78
2023-01-19T13:43:50.868Z,37.63
2023-01-19T13:46:56.556Z,38.03
2023-01-19T13:50:02.231Z,38.32
2023-01-19T13:53:19.318Z,38.65
2023-01-19T13:56:25.392Z,38.31
2023-01-19T13:59:29.673Z,38.59
2023-01-19T14:02:32.908Z,39.06
2023-01-19T14:05:37.799Z,38.52
2023-01-19T14:08:42.450Z,38.09
2023-01-19T14:11:47.049Z,37.58
2023-01-19T14:14:51.666Z,37.54
2023-01-19T14:18:11.177Z,37.51
2023-01-19T14:21:17.620Z,37.52
2023-01-19T14:24:22.357Z,37.52
2023-01-19T14:27:27.251Z,37.72
2023-01-19T14:30:35.809Z,37.24
2023-01-19T14:33:46.145Z,37.73
2023-01-19T14:36:52.844Z,37.61
2023-01-19T14:40:05.761Z,37.12
2023-01-19T14:43:15.913Z,37.50
2023-01-19T14:46:20.071Z,37.44
2023-01-19T14:49:29.642Z,37.01
2023-01-19T14:52:38.054Z,37.37
2023-01-19T14:55:52.206Z,37.48
2023-01-19T14:58:56.757Z,37.48
2023-01-19T15:02:05.245Z,37.65
2023-01-19T15:05:09.985Z,37.21
2023-01-19T15:08:16.660Z,37.49
2023-01-19T15:11:24.563Z,38.24
2023-01-19T15:14:27.985Z,38.18
2023-01-19T15:17:33.886Z,37.65
2023-01-19T15:20:37.000Z,37.89
2023-01-19T15:23:42.953Z,37.95
2023-01-19T15:26:50.329Z,37.79
2023-01-19T15:29:54.724Z,37.86
2023-01-19T15:33:03.524Z,37.84
2023-01-19T15:36:06.927Z,37.80
2023-01-19T15:39:12.306Z,37.74
2023-01-19T15:42:17.001Z,37.54
2023-01-19T15:45:40.564Z,37.72
2023-01-19T15:48:43.718Z,37.29
2023-01-19T15:51:47.241Z,37.40
2023-01-19T15:54:50.309Z,37.40
2023-01-19T15:57:58.574Z,37.68
2023-01-19T16:01:01.709Z,37.64
2023-01-19T16:04:09.071Z,37.92
2023-01-19T16:07:13.772Z,38.14
2023-01-19T16:10:21.217Z,38.01
2023-01-19T16:13:26.036Z,38.24
2023-01-19T16:16:29.242Z,38.15
2023-01-19T16:19:36.154Z,38.37
2023-01-19T16:22:42.029Z,38.72
2023-01-19T16:25:45.714Z,38.68
2023-01-19T16:28:50.410Z,38.06
2023-01-19T16:31:56.389Z,38.57
2023-01-19T16:34:59.812Z,38.17
2023-01-19T16:38:02.811Z,38.60
2023-01-19T16:41:07.511Z,38.46
2023-01-19T16:44:16.842Z,38.22
2023-01-19T16:47:22.473Z,38.94
2023-01-19T16:50:27.276Z,38.70
2023-01-19T16:53:36.349Z,38.73
2023-01-19T16:56:39.797Z,38.41
2023-01-19T16:59:46.472Z,38.65
2023-01-19T17:02:50.088Z,38.96
2023-01-19T17:05:58.749Z,38.46
2023-01-19T17:09:02.401Z,39.35
2023-01-19T17:12:09.356Z,39.41
2023-01-19T17:15:15.133Z,39.48
2023-01-19T17:18:22.303Z,39.55
2023-01-19T17:21:26.159Z,39.77
2023-01-19T17:24:29.253Z,39.61
2023-01-19T17:27:35.422Z,39.65
2023-01-19T17:30:43.424Z,39.38
2023-01-19T17:33:47.731Z,39.41
2023-01-19T17:37:03.763Z,40.42
2023-01-19T17:40:08.449Z,35.84
2023-01-19T17:43:14.308Z,35.18
2023-01-19T17:46:19.725Z,35.20
2023-01-19T17:49:24.769Z,35.26
2023-01-19T17:52:28.294Z,34.70
2023-01-19T17:55:33.940Z,34.69
2023-01-19T17:58:39.104Z,34.87
2023-01-19T18:01:44.630Z,34.67
2023-01-19T18:04:49.356Z,34.59
2023-01-19T18:07:54.509Z,34.87
2023-01-19T18:10:59.292Z,34.59
2023-01-19T18:14:02.991Z,35.59
2023-01-19T18:17:11.764Z,35.87
2023-01-19T18:20:17.015Z,35.24
2023-01-19T18:23:23.017Z,35.04
2023-01-19T18:26:28.680Z,35.42
2023-01-19T18:29:34.955Z,35.49
2023-01-19T18:32:43.918Z,36.08
2023-01-19T18:35:48.167Z,36.49
2023-01-19T18:38:53.727Z,36.11
2023-01-19T18:41:57.175Z,36.71
2023-01-19T18:45:00.276Z,36.87
2023-01-19T18:48:05.863Z,37.30
2023-01-19T18:51:14.568Z,37.45
2023-01-19T18:54:19.055Z,37.21
2023-01-19T18:57:22.542Z,37.39
2023-01-19T19:00:26.214Z,37.27
2023-01-19T19:03:37.226Z,37.91
2023-01-19T19:06:42.912Z,38.10
2023-01-19T19:09:46.632Z,38.23
2023-01-19T19:12:51.977Z,38.10
2023-01-19T19:16:04.870Z,37.91
2023-01-19T19:19:14.171Z,38.22
2023-01-19T19:22:19.911Z,38.35
2023-01-19T19:25:23.513Z,38.28
2023-01-19T19:28:27.612Z,38.27
2023-01-19T19:31:31.841Z,38.86
2023-01-19T19:34:50.670Z,39.07
2023-01-19T19:37:57.629Z,38.70
2023-01-19T19:41:08.200Z,38.89
2023-01-19T19:44:12.948Z,38.54
2023-01-19T19:47:20.635Z,38.37
2023-01-19T19:50:25.644Z,38.78
2023-01-19T19:53:29.440Z,38.53
2023-01-19T19:56:37.513Z,39.05
2023-01-19T19:59:45.186Z,38.85
2023-01-19T20:02:53.653Z,39.34
2023-01-19T20:06:04.174Z,38.96
2023-01-19T20:09:09.117Z,39.48
2023-01-19T20:12:17.593Z,39.32
2023-01-19T20:15:27.002Z,39.42
2023-01-19T20:18:32.543Z,39.95
2023-01-19T20:21:40.125Z,39.86
2023-01-19T20:24:44.808Z,40.00
2023-01-19T20:27:49.928Z,40.28
2023-01-19T20:30:57.079Z,40.41
2023-01-19T20:34:08.066Z,40.15
2023-01-19T20:37:13.143Z,40.35
2023-01-19T20:40:20.861Z,40.41
2023-01-19T20:43:24.480Z,40.27
2023-01-19T20:46:27.955Z,39.88
2023-01-19T20:49:35.510Z,40.60
2023-01-19T20:52:46.038Z,40.39
2023-01-19T20:55:50.035Z,40.35
2023-01-19T20:58:55.793Z,39.80
2023-01-19T21:02:03.569Z,40.25
2023-01-19T21:05:08.529Z,39.95
2023-01-19T21:08:57.657Z,39.96
2023-01-19T21:12:00.807Z,39.94
2023-01-19T21:15:04.208Z,40.10
2023-01-19T21:18:07.384Z,40.19
2023-01-19T21:21:20.768Z,39.96
2023-01-19T21:24:33.117Z,40.26
2023-01-19T21:28:28.764Z,40.04
2023-01-19T21:31:34.596Z,40.06
2023-01-19T21:34:37.837Z,40.22
2023-01-19T21:37:42.335Z,39.90
2023-01-19T21:40:46.988Z,40.28
2023-01-19T21:43:50.083Z,39.97
2023-01-19T21:46:53.101Z,40.04
2023-01-19T21:49:56.138Z,40.72
2023-01-19T21:52:59.165Z,40.42
2023-01-19T21:56:03.571Z,40.56
2023-01-19T21:59:06.649Z,40.25
2023-01-19T22:02:12.494Z,40.52
2023-01-19T22:05:15.740Z,39.90
2023-01-19T22:08:23.382Z,39.95
2023-01-19T22:11:28.754Z,40.13
2023-01-19T22:14:31.786Z,39.89
2023-01-19T22:17:35.268Z,39.73
2023-01-19T22:20:38.283Z,39.94
2023-01-19T22:23:42.018Z,40.09
2023-01-19T22:26:46.422Z,39.99
2023-01-19T22:29:49.474Z,39.65
2023-01-19T22:32:53.166Z,39.39
2023-01-19T22:35:56.152Z,39.37
2023-01-19T22:39:00.510Z,39.73
2023-01-19T22:42:07.134Z,39.45
2023-01-19T22:45:11.396Z,39.48
2023-01-19T22:48:14.652Z,39.03
2023-01-19T22:51:18.906Z,39.53
2023-01-19T22:54:23.025Z,39.31
2023-01-19T22:57:27.389Z,39.30
2023-01-19T23:00:30.413Z,38.84
2023-01-19T23:03:33.612Z,39.14
2023-01-19T23:06:37.908Z,38.84
2023-01-19T23:09:40.901Z,38.64
2023-01-19T23:12:46.648Z,38.49
2023-01-19T23:15:49.731Z,38.92
2023-01-19T23:18:54.615Z,38.73
2023-01-19T23:21:57.635Z,38.18
2023-01-19T23:25:00.669Z,38.42
2023-01-19T23:28:07.472Z,38.33
2023-01-19T23:31:18.973Z,38.48
2023-01-19T23:34:21.977Z,38.35
2023-01-19T23:37:25.092Z,38.17
2023-01-19T23:40:28.107Z,38.40
2023-01-19T23:43:32.613Z,38.27
2023-01-19T23:46:35.803Z,38.22
2023-01-19T23:49:40.231Z,37.89
2023-01-19T23:52:43.211Z,38.27
2023-01-19T23:55:46.166Z,38.31
2023-01-19T23:58:55.502Z,38.11
